Time;durP1;ratioP1;P1;durP2;ratioP2;P2;SDS_P1;SDS_P2;PMS_P1;PMS_P2;Temp;Humidity;BMP_temperature;BMP_pressure;BME280_temperature;BME280_humidity;BME280_pressure;Samples;Min_cycle;Max_cycle;Signal;HPM_P1;HPM_P2
2023/08/12 00:00:11;;;;;;;13.93;10.18;;;19.80;99.90;;;;;;4928269;29;20075;-62
2023/08/12 00:02:38;;;;;;;13.73;10.02;;;19.60;99.90;;;;;;4927398;29;20079;-61
2023/08/12 00:05:05;;;;;;;14.68;9.63;;;19.60;99.90;;;;;;4928099;29;20048;-61
2023/08/12 00:07:32;;;;;;;11.35;8.23;;;19.70;99.90;;;;;;4926132;29;20062;-62
2023/08/12 00:09:59;;;;;;;13.25;8.13;;;19.70;99.90;;;;;;4927304;29;20447;-58
2023/08/12 00:12:24;;;;;;;11.88;7.88;;;19.60;99.90;;;;;;4927984;29;20051;-62
2023/08/12 00:14:50;;;;;;;11.25;7.45;;;19.60;99.90;;;;;;4928828;29;20040;-59
2023/08/12 00:17:15;;;;;;;13.60;7.55;;;19.60;99.90;;;;;;4928214;29;20078;-62
2023/08/12 00:19:41;;;;;;;9.40;6.50;;;19.60;99.90;;;;;;4928053;29;20514;-63
2023/08/12 00:22:07;;;;;;;9.20;6.75;;;19.60;99.90;;;;;;4927864;29;20035;-57
2023/08/12 00:24:32;;;;;;;9.45;6.63;;;19.40;99.90;;;;;;4931997;29;20052;-63
2023/08/12 00:26:58;;;;;;;12.77;6.75;;;19.50;99.90;;;;;;4931189;29;20043;-58
2023/08/12 00:29:24;;;;;;;10.27;6.68;;;19.60;99.90;;;;;;4931785;29;20070;-53
2023/08/12 00:31:50;;;;;;;9.48;6.05;;;19.50;99.90;;;;;;4931765;29;20476;-56
2023/08/12 00:34:16;;;;;;;8.32;5.85;;;19.40;99.90;;;;;;4931400;29;20043;-54
2023/08/12 00:36:42;;;;;;;11.68;6.13;;;19.40;99.90;;;;;;4929882;29;20056;-57
2023/08/12 00:39:08;;;;;;;9.48;6.35;;;19.50;99.90;;;;;;4930906;29;20051;-56
2023/08/12 00:41:33;;;;;;;8.60;5.50;;;19.50;99.90;;;;;;4931248;29;20059;-59
2023/08/12 00:43:59;;;;;;;9.55;5.82;;;19.50;99.90;;;;;;4931071;29;20519;-62
2023/08/12 00:46:25;;;;;;;9.43;5.43;;;19.40;99.90;;;;;;4931183;29;20055;-57
2023/08/12 00:48:51;;;;;;;10.13;5.43;;;19.40;99.90;;;;;;4931468;29;20443;-62
2023/08/12 00:51:17;;;;;;;10.38;5.75;;;19.30;99.90;;;;;;4930612;29;20404;-54
2023/08/12 00:53:46;;;;;;;9.25;5.10;;;19.30;99.90;;;;;;4930163;29;20065;-63
2023/08/12 00:56:12;;;;;;;9.32;4.63;;;19.40;99.90;;;;;;4930250;29;20517;-56
2023/08/12 00:58:38;;;;;;;7.35;5.10;;;19.30;99.90;;;;;;4929681;29;20138;-61
2023/08/12 01:01:04;;;;;;;7.00;4.68;;;19.30;99.90;;;;;;4930652;29;20051;-63
2023/08/12 01:03:30;;;;;;;10.23;4.85;;;19.30;99.90;;;;;;4931077;29;20095;-60
2023/08/12 01:05:56;;;;;;;7.45;5.07;;;19.20;99.90;;;;;;4930758;29;20051;-55
2023/08/12 01:08:27;;;;;;;8.95;5.00;;;19.20;99.90;;;;;;5001957;23;20063;-60
2023/08/12 01:11:02;;;;;;;7.85;5.10;;;19.20;99.90;;;;;;4911481;29;20138;-60
2023/08/12 01:13:52;;;;;;;8.80;5.18;;;19.20;99.90;;;;;;4911354;29;20052;-61
2023/08/12 01:16:20;;;;;;;8.98;5.50;;;19.10;99.90;;;;;;4911468;29;20530;-60
2023/08/12 01:18:47;;;;;;;9.73;5.57;;;19.20;99.90;;;;;;4910886;29;20064;-59
2023/08/12 01:21:16;;;;;;;9.80;5.20;;;19.20;99.90;;;;;;4911752;29;20052;-60
2023/08/12 01:23:43;;;;;;;8.32;5.63;;;19.20;99.90;;;;;;4910069;29;20139;-60
2023/08/12 01:26:08;;;;;;;9.35;6.10;;;19.10;99.90;;;;;;4911461;29;20052;-60
2023/08/12 01:28:34;;;;;;;8.68;5.68;;;19.10;99.90;;;;;;4911369;29;20143;-59
2023/08/12 01:31:19;;;;;;;10.35;5.65;;;19.10;99.90;;;;;;4912331;29;20368;-61
2023/08/12 01:33:56;;;;;;;8.82;5.82;;;19.20;99.90;;;;;;4911047;29;20605;-60
2023/08/12 01:36:26;;;;;;;9.57;6.05;;;19.20;99.90;;;;;;4911895;29;20056;-61
2023/08/12 01:38:55;;;;;;;8.02;5.30;;;19.10;99.90;;;;;;4910906;29;20055;-61
2023/08/12 01:41:23;;;;;;;8.65;5.93;;;19.10;99.90;;;;;;4911065;29;20095;-60
2023/08/12 01:43:49;;;;;;;8.52;5.80;;;19.00;99.90;;;;;;4910400;29;20150;-60
2023/08/12 01:46:15;;;;;;;9.27;5.63;;;19.10;99.90;;;;;;4910186;29;20107;-60
2023/08/12 01:48:40;;;;;;;9.32;6.20;;;19.00;99.90;;;;;;4910621;29;20043;-60
2023/08/12 01:51:07;;;;;;;10.73;6.32;;;19.00;99.90;;;;;;4911691;29;20095;-59
2023/08/12 01:53:32;;;;;;;10.15;5.68;;;19.00;99.90;;;;;;4910161;29;20043;-60
2023/08/12 01:55:58;;;;;;;12.75;6.20;;;19.00;99.90;;;;;;4905247;29;20523;-61
2023/08/12 01:58:26;;;;;;;10.27;5.82;;;19.00;99.90;;;;;;4899413;29;20397;-60
2023/08/12 02:00:52;;;;;;;13.50;6.20;;;19.00;99.90;;;;;;4892442;29;20096;-60
2023/08/12 02:03:17;;;;;;;10.07;6.20;;;18.90;99.90;;;;;;4892670;29;20044;-60
2023/08/12 02:05:43;;;;;;;10.45;5.75;;;18.90;99.90;;;;;;4891090;29;20049;-60
2023/08/12 02:08:09;;;;;;;8.75;5.90;;;18.90;99.90;;;;;;4891975;29;20063;-60
2023/08/12 02:10:35;;;;;;;9.30;6.57;;;18.90;99.90;;;;;;4891794;29;20052;-60
2023/08/12 02:13:01;;;;;;;10.30;6.20;;;18.90;99.90;;;;;;4891437;29;20046;-58
2023/08/12 02:15:27;;;;;;;10.25;6.75;;;18.80;99.90;;;;;;4892024;29;20051;-60
2023/08/12 02:17:52;;;;;;;10.20;6.43;;;18.80;99.90;;;;;;4892111;29;20045;-61
2023/08/12 02:20:18;;;;;;;11.70;6.35;;;18.80;99.90;;;;;;4892124;29;20571;-61
2023/08/12 02:22:44;;;;;;;8.77;6.32;;;18.80;99.90;;;;;;4891708;29;20100;-59
2023/08/12 02:25:10;;;;;;;9.32;6.32;;;18.80;99.90;;;;;;4890648;29;20488;-61
2023/08/12 02:27:35;;;;;;;10.93;6.97;;;18.80;99.90;;;;;;4891089;29;20057;-60
2023/08/12 02:30:01;;;;;;;12.07;7.03;;;18.70;99.90;;;;;;4891359;29;20076;-60
2023/08/12 02:32:26;;;;;;;10.38;6.97;;;18.70;99.90;;;;;;4892429;29;20119;-61
2023/08/12 02:34:52;;;;;;;11.25;7.22;;;18.70;99.90;;;;;;4891889;29;20051;-61
2023/08/12 02:37:18;;;;;;;11.10;7.35;;;18.60;99.90;;;;;;4891598;29;20059;-60
2023/08/12 02:39:43;;;;;;;11.98;7.85;;;18.70;99.90;;;;;;4890732;29;20447;-61
2023/08/12 02:42:09;;;;;;;12.07;7.75;;;18.80;99.90;;;;;;4890035;29;20428;-61
2023/08/12 02:44:35;;;;;;;12.15;8.07;;;18.70;99.90;;;;;;4890856;29;20071;-59
2023/08/12 02:47:00;;;;;;;10.80;7.75;;;18.80;99.90;;;;;;4890331;29;20052;-58
2023/08/12 02:49:26;;;;;;;12.63;8.50;;;18.70;99.90;;;;;;4890854;29;20048;-63
2023/08/12 02:51:51;;;;;;;13.02;9.23;;;18.70;99.90;;;;;;4903747;29;20490;-59
2023/08/12 02:54:17;;;;;;;14.45;9.10;;;18.80;99.90;;;;;;4908942;29;20052;-61
2023/08/12 02:56:44;;;;;;;13.45;9.20;;;18.80;99.90;;;;;;4901623;29;20047;-61
2023/08/12 02:59:09;;;;;;;12.60;9.35;;;18.70;99.90;;;;;;4892970;29;20076;-61
2023/08/12 03:01:35;;;;;;;14.82;9.35;;;18.70;99.90;;;;;;4889500;29;20127;-59
2023/08/12 03:04:00;;;;;;;17.65;9.70;;;18.70;99.90;;;;;;4890487;29;20036;-59
2023/08/12 03:06:26;;;;;;;14.85;9.85;;;18.70;99.90;;;;;;4890611;29;20368;-61
2023/08/12 03:08:52;;;;;;;15.98;9.98;;;18.70;99.90;;;;;;4889691;29;20499;-60
2023/08/12 03:11:18;;;;;;;14.30;10.00;;;18.70;99.90;;;;;;4890704;29;20071;-60
2023/08/12 03:13:44;;;;;;;15.80;10.80;;;18.70;99.90;;;;;;4889826;29;20045;-60
2023/08/12 03:16:14;;;;;;;16.30;10.45;;;18.80;99.90;;;;;;4890923;29;20080;-60
2023/08/12 03:18:40;;;;;;;17.88;10.20;;;18.70;99.90;;;;;;4890786;29;20059;-61
2023/08/12 03:21:07;;;;;;;17.20;10.95;;;18.90;99.90;;;;;;4890391;29;20535;-58
2023/08/12 03:23:33;;;;;;;20.83;11.27;;;18.90;99.90;;;;;;4890696;29;20135;-59
2023/08/12 03:25:58;;;;;;;15.88;10.52;;;18.80;99.90;;;;;;4891189;29;20125;-60
2023/08/12 03:28:24;;;;;;;17.10;10.98;;;18.80;99.90;;;;;;4889212;29;20814;-61
2023/08/12 03:30:51;;;;;;;16.90;10.70;;;18.80;99.90;;;;;;4891000;29;20135;-60
2023/08/12 03:33:17;;;;;;;22.02;11.35;;;18.90;99.90;;;;;;4890547;29;20137;-59
2023/08/12 03:35:46;;;;;;;19.58;11.88;;;18.90;99.90;;;;;;4890509;29;20116;-60
2023/08/12 03:38:11;;;;;;;18.92;11.43;;;18.90;99.90;;;;;;4890192;29;20045;-60
2023/08/12 03:40:41;;;;;;;19.85;11.27;;;18.80;99.90;;;;;;4890783;29;20063;-60
2023/08/12 03:43:07;;;;;;;17.77;11.70;;;18.90;99.90;;;;;;4890855;29;20040;-61
2023/08/12 03:45:39;;;;;;;16.75;11.80;;;18.90;99.90;;;;;;4891167;29;20080;-61
2023/08/12 03:48:05;;;;;;;17.20;11.32;;;18.90;99.90;;;;;;4890651;29;20423;-60
2023/08/12 03:50:37;;;;;;;18.23;11.75;;;18.80;99.90;;;;;;4891082;29;20051;-61
2023/08/12 03:53:03;;;;;;;17.17;11.32;;;18.80;99.90;;;;;;4888940;29;20055;-60
2023/08/12 03:55:32;;;;;;;15.35;12.32;;;18.70;99.90;;;;;;4892889;29;20127;-61
2023/08/12 03:58:01;;;;;;;18.08;12.25;;;18.80;99.90;;;;;;4897897;29;20198;-59
2023/08/12 04:00:27;;;;;;;19.45;12.32;;;18.80;99.90;;;;;;4890098;29;20494;-60
2023/08/12 04:02:53;;;;;;;17.95;12.40;;;18.70;99.90;;;;;;4889737;29;20049;-60
2023/08/12 04:05:19;;;;;;;20.83;12.73;;;18.60;99.90;;;;;;4889721;29;20052;-59
2023/08/12 04:07:44;;;;;;;17.80;11.88;;;18.60;99.90;;;;;;4889957;29;20487;-61
2023/08/12 04:10:10;;;;;;;18.70;12.35;;;18.60;99.90;;;;;;4889720;29;20049;-60
2023/08/12 04:12:37;;;;;;;21.50;12.82;;;18.70;99.90;;;;;;4890318;29;20093;-60
2023/08/12 04:15:05;;;;;;;21.20;13.13;;;18.70;99.90;;;;;;4888941;29;20048;-60
2023/08/12 04:17:31;;;;;;;19.38;12.43;;;18.70;99.90;;;;;;4889894;29;20072;-61
2023/08/12 04:19:57;;;;;;;18.83;13.18;;;18.80;99.90;;;;;;4888312;29;20139;-61
2023/08/12 04:22:23;;;;;;;21.80;13.90;;;18.70;99.90;;;;;;4888698;29;20161;-61
2023/08/12 04:24:49;;;;;;;18.55;12.98;;;18.60;99.90;;;;;;4889792;29;20045;-61
2023/08/12 04:27:16;;;;;;;18.70;12.95;;;18.80;99.90;;;;;;4890159;29;20060;-61
2023/08/12 04:29:42;;;;;;;20.08;13.43;;;18.80;99.90;;;;;;4890082;29;20056;-61
2023/08/12 04:32:08;;;;;;;22.95;13.23;;;18.80;99.90;;;;;;4889477;29;20053;-60
2023/08/12 04:34:33;;;;;;;19.17;13.35;;;18.70;99.90;;;;;;4890570;29;20050;-61
2023/08/12 04:36:59;;;;;;;23.48;14.23;;;18.80;99.90;;;;;;4890293;29;20690;-61
2023/08/12 04:39:25;;;;;;;19.55;13.73;;;18.70;99.90;;;;;;4888858;29;20056;-60
2023/08/12 04:41:51;;;;;;;22.85;14.05;;;18.80;99.90;;;;;;4888963;29;20052;-61
2023/08/12 04:44:16;;;;;;;21.13;13.65;;;18.70;99.90;;;;;;4890291;29;20468;-60
2023/08/12 04:46:42;;;;;;;22.80;13.73;;;18.80;99.90;;;;;;4889975;29;20056;-61
2023/08/12 04:49:08;;;;;;;19.70;14.02;;;18.80;99.90;;;;;;4890047;29;20460;-61
2023/08/12 04:51:34;;;;;;;18.80;13.55;;;18.90;99.90;;;;;;4890440;29;20045;-61
2023/08/12 04:54:01;;;;;;;19.45;13.98;;;18.90;99.90;;;;;;4889459;29;20084;-60
2023/08/12 04:56:28;;;;;;;21.63;13.95;;;18.80;99.90;;;;;;4893842;29;20048;-62
2023/08/12 04:58:54;;;;;;;19.42;14.18;;;18.80;99.90;;;;;;4894268;29;20049;-61
2023/08/12 05:01:20;;;;;;;22.35;14.23;;;19.00;99.90;;;;;;4890108;29;20556;-61
2023/08/12 05:03:46;;;;;;;21.23;14.13;;;18.90;99.90;;;;;;4890177;29;20440;-61
2023/08/12 05:06:11;;;;;;;20.02;14.45;;;18.90;99.90;;;;;;4890291;29;20056;-61
2023/08/12 05:08:37;;;;;;;18.63;14.07;;;18.90;99.90;;;;;;4890352;29;20064;-61
2023/08/12 05:11:03;;;;;;;25.77;14.07;;;19.00;99.90;;;;;;4893331;29;20109;-60
2023/08/12 05:13:29;;;;;;;19.65;14.52;;;19.00;99.90;;;;;;4892790;29;20064;-61
2023/08/12 05:15:55;;;;;;;20.98;14.20;;;18.90;99.90;;;;;;4892870;29;20142;-60
2023/08/12 05:18:26;;;;;;;20.77;14.68;;;19.00;99.90;;;;;;4893395;29;20048;-60
2023/08/12 05:20:52;;;;;;;19.98;14.85;;;19.00;99.90;;;;;;4892780;29;20056;-61
2023/08/12 05:23:20;;;;;;;23.25;15.05;;;19.10;99.90;;;;;;4892316;29;20547;-61
2023/08/12 05:25:46;;;;;;;20.92;14.32;;;19.00;99.90;;;;;;4892158;29;20056;-60
2023/08/12 05:28:11;;;;;;;20.90;14.45;;;19.10;99.90;;;;;;4892416;29;20041;-61
2023/08/12 05:30:38;;;;;;;22.77;16.48;;;19.10;99.90;;;;;;4893242;29;20678;-61
2023/08/12 05:33:04;;;;;;;17.90;13.93;;;19.00;99.90;;;;;;4892800;29;20036;-61
2023/08/12 05:35:34;;;;;;;20.83;14.50;;;19.10;99.90;;;;;;4892573;29;20049;-61
2023/08/12 05:38:00;;;;;;;22.13;15.40;;;19.10;99.90;;;;;;4901919;29;20052;-61
2023/08/12 05:40:25;;;;;;;21.55;15.32;;;19.10;99.90;;;;;;4911352;29;20075;-61
2023/08/12 05:42:51;;;;;;;18.77;14.80;;;19.10;99.90;;;;;;4911236;29;20040;-60
2023/08/12 05:45:16;;;;;;;20.38;14.88;;;19.10;99.90;;;;;;4910772;29;20055;-59
2023/08/12 05:47:42;;;;;;;21.20;15.80;;;19.20;99.90;;;;;;4911617;29;20051;-60
2023/08/12 05:50:08;;;;;;;24.35;16.05;;;19.10;99.90;;;;;;4911369;29;20048;-59
2023/08/12 05:52:34;;;;;;;19.58;15.55;;;19.10;99.90;;;;;;4910948;29;20059;-61
2023/08/12 05:54:59;;;;;;;23.80;15.95;;;19.20;99.90;;;;;;4909735;29;20032;-61
2023/08/12 05:57:25;;;;;;;26.67;16.13;;;19.20;99.90;;;;;;4902346;29;20063;-61
2023/08/12 05:59:51;;;;;;;23.20;16.38;;;19.30;99.90;;;;;;4892706;29;20033;-60
2023/08/12 06:02:17;;;;;;;22.48;16.08;;;19.30;99.90;;;;;;4890298;29;20053;-60
2023/08/12 06:04:42;;;;;;;21.17;17.08;;;19.30;99.90;;;;;;4891742;29;20044;-61
2023/08/12 06:07:08;;;;;;;23.83;16.25;;;19.30;99.90;;;;;;4891704;29;20044;-60
2023/08/12 06:09:34;;;;;;;23.02;16.40;;;19.40;99.90;;;;;;4890091;29;20131;-61
2023/08/12 06:11:59;;;;;;;23.55;17.10;;;19.30;99.90;;;;;;4892189;29;20428;-61
2023/08/12 06:14:25;;;;;;;22.08;15.32;;;19.40;99.90;;;;;;4891629;29;20403;-60
2023/08/12 06:16:50;;;;;;;22.02;16.48;;;19.50;99.90;;;;;;4891479;29;20116;-61
2023/08/12 06:19:16;;;;;;;22.60;15.82;;;19.50;99.90;;;;;;4890799;29;20041;-61
2023/08/12 06:21:42;;;;;;;21.00;15.68;;;19.60;99.90;;;;;;4891573;29;20076;-61
2023/08/12 06:24:07;;;;;;;24.27;16.58;;;19.60;99.90;;;;;;4891735;29;20036;-61
2023/08/12 06:26:33;;;;;;;24.77;16.35;;;19.60;99.90;;;;;;4891175;29;20060;-62
2023/08/12 06:28:58;;;;;;;24.98;15.65;;;19.80;99.90;;;;;;4891791;29;20100;-62
2023/08/12 06:31:24;;;;;;;22.70;16.15;;;19.70;99.90;;;;;;4891739;29;20077;-61
2023/08/12 06:33:49;;;;;;;21.95;16.30;;;19.80;99.90;;;;;;4895459;29;20055;-60
2023/08/12 06:36:15;;;;;;;23.17;16.63;;;19.90;99.90;;;;;;4910322;29;20130;-61
2023/08/12 06:38:41;;;;;;;20.67;16.42;;;20.00;99.90;;;;;;4910004;29;20415;-61
2023/08/12 06:41:06;;;;;;;23.02;17.73;;;20.00;99.90;;;;;;4909789;29;20048;-62
2023/08/12 06:43:32;;;;;;;29.17;17.08;;;20.00;99.90;;;;;;4909936;29;20431;-61
2023/08/12 06:45:57;;;;;;;21.90;16.77;;;20.10;99.90;;;;;;4910433;29;20040;-62
2023/08/12 06:48:23;;;;;;;24.35;17.80;;;20.20;99.90;;;;;;4910109;29;20120;-61
2023/08/12 06:50:55;;;;;;;28.83;17.50;;;20.20;99.90;;;;;;4908823;29;20060;-61
2023/08/12 06:53:21;;;;;;;25.95;19.88;;;20.20;99.90;;;;;;4909568;29;20044;-62
2023/08/12 06:55:47;;;;;;;26.58;18.40;;;20.30;99.90;;;;;;4905775;29;20055;-61
2023/08/12 06:58:14;;;;;;;28.63;20.10;;;20.20;99.90;;;;;;4899457;29;20048;-62
2023/08/12 07:00:39;;;;;;;24.50;19.35;;;20.20;99.90;;;;;;4905538;29;20464;-61
2023/08/12 07:03:05;;;;;;;26.95;20.35;;;20.20;99.90;;;;;;4891351;29;20154;-60
2023/08/12 07:05:31;;;;;;;26.10;19.90;;;20.30;99.90;;;;;;4891447;29;20051;-62
2023/08/12 07:07:56;;;;;;;27.52;20.80;;;20.30;99.90;;;;;;4889798;29;20086;-61
2023/08/12 07:10:22;;;;;;;26.25;21.92;;;20.30;99.90;;;;;;4901400;29;20080;-61
2023/08/12 07:12:48;;;;;;;27.20;21.42;;;20.20;99.90;;;;;;4901772;29;20051;-48
2023/08/12 07:15:13;;;;;;;32.42;23.10;;;20.30;99.90;;;;;;4910311;29;20143;-63
2023/08/12 07:17:39;;;;;;;32.10;21.88;;;20.30;99.90;;;;;;4907784;29;20490;-59
2023/08/12 07:20:06;;;;;;;28.10;22.17;;;20.30;99.90;;;;;;4910135;29;20448;-65
2023/08/12 07:22:31;;;;;;;27.58;23.40;;;20.30;99.90;;;;;;4906483;29;20087;-57
2023/08/12 07:24:59;;;;;;;33.80;23.13;;;20.30;99.90;;;;;;4907583;29;20098;-60
2023/08/12 07:27:26;;;;;;;29.55;23.73;;;20.30;99.90;;;;;;4909405;29;20052;-63
2023/08/12 07:29:51;;;;;;;32.00;23.60;;;20.30;99.90;;;;;;4909321;29;20040;-62
2023/08/12 07:32:17;;;;;;;31.25;23.23;;;20.20;99.90;;;;;;4908130;29;20420;-65
2023/08/12 07:34:42;;;;;;;29.05;22.42;;;20.30;99.90;;;;;;4908464;29;20040;-62
2023/08/12 07:37:08;;;;;;;33.83;24.25;;;20.40;99.90;;;;;;4910645;29;20134;-64
2023/08/12 07:39:34;;;;;;;29.13;23.10;;;20.30;99.90;;;;;;4909165;29;20056;-61
2023/08/12 07:41:59;;;;;;;32.33;23.85;;;20.30;99.90;;;;;;4909388;29;20082;-64
2023/08/12 07:44:25;;;;;;;28.15;24.25;;;20.30;99.90;;;;;;4909335;29;20080;-60
2023/08/12 07:46:50;;;;;;;31.58;24.48;;;20.30;99.90;;;;;;4909604;29;20063;-65
2023/08/12 07:49:16;;;;;;;31.85;24.20;;;20.30;99.90;;;;;;4909646;29;20059;-63
2023/08/12 07:51:42;;;;;;;30.95;24.50;;;20.30;99.90;;;;;;4909984;29;20051;-61
2023/08/12 07:54:08;;;;;;;31.65;25.02;;;20.20;99.90;;;;;;4907674;29;20620;-62
2023/08/12 07:56:33;;;;;;;30.48;23.67;;;20.30;99.90;;;;;;4903109;29;20075;-62
2023/08/12 07:58:59;;;;;;;33.45;22.67;;;20.30;99.90;;;;;;4893779;29;20051;-62
2023/08/12 08:01:24;;;;;;;28.02;23.73;;;20.30;99.90;;;;;;4890670;29;20093;-63
2023/08/12 08:03:50;;;;;;;30.98;24.17;;;20.20;99.90;;;;;;4873913;29;20563;-61
2023/08/12 08:06:16;;;;;;;30.98;23.27;;;20.40;99.90;;;;;;4890097;29;20044;-61
2023/08/12 08:08:41;;;;;;;29.35;23.05;;;20.30;99.90;;;;;;4888934;29;20200;-66
2023/08/12 08:11:07;;;;;;;27.63;22.58;;;20.30;99.90;;;;;;4888573;29;20056;-65
2023/08/12 08:13:33;;;;;;;28.05;21.88;;;20.40;99.90;;;;;;4889890;29;20516;-64
2023/08/12 08:15:58;;;;;;;27.70;22.23;;;20.40;99.90;;;;;;4888307;29;20420;-63
2023/08/12 08:18:24;;;;;;;29.60;23.15;;;20.40;99.90;;;;;;4890472;29;20423;-60
2023/08/12 08:20:50;;;;;;;30.45;23.65;;;20.40;99.90;;;;;;4888286;29;20048;-62
2023/08/12 08:23:15;;;;;;;28.40;22.77;;;20.50;99.90;;;;;;4889297;29;20060;-63
2023/08/12 08:25:41;;;;;;;30.80;23.75;;;20.40;99.90;;;;;;4890388;29;20048;-59
2023/08/12 08:28:08;;;;;;;30.45;22.40;;;20.40;99.90;;;;;;4890396;29;20044;-65
2023/08/12 08:30:33;;;;;;;29.55;23.80;;;20.50;99.90;;;;;;4889958;29;20051;-62
2023/08/12 08:32:59;;;;;;;29.77;23.80;;;20.60;99.90;;;;;;4889955;29;20056;-64
2023/08/12 08:35:24;;;;;;;29.35;22.15;;;20.50;99.90;;;;;;4890200;29;20052;-68
2023/08/12 08:37:50;;;;;;;32.45;22.40;;;20.60;99.90;;;;;;4890027;29;20414;-67
2023/08/12 08:40:16;;;;;;;28.83;23.02;;;20.60;99.90;;;;;;4890047;29;20072;-66
2023/08/12 08:42:44;;;;;;;28.83;23.20;;;20.50;99.90;;;;;;4889629;29;20127;-63
2023/08/12 08:45:14;;;;;;;29.10;22.50;;;20.70;99.90;;;;;;4901092;29;20183;-67
2023/08/12 08:47:42;;;;;;;32.50;24.25;;;20.60;99.90;;;;;;4910957;29;20128;-62
2023/08/12 08:50:09;;;;;;;28.35;23.95;;;20.50;99.90;;;;;;4910844;29;20479;-64
2023/08/12 08:52:37;;;;;;;31.00;24.17;;;20.60;99.90;;;;;;4912394;29;20056;-50
2023/08/12 08:55:04;;;;;;;29.20;23.73;;;20.70;99.90;;;;;;4911753;29;20123;-65
2023/08/12 08:57:30;;;;;;;30.65;24.10;;;20.60;99.90;;;;;;4904122;29;20049;-60
2023/08/12 08:59:55;;;;;;;31.73;24.45;;;20.60;99.90;;;;;;4894208;29;20432;-66
2023/08/12 09:02:22;;;;;;;32.53;25.25;;;20.60;99.90;;;;;;4898868;29;20044;-65
2023/08/12 09:04:48;;;;;;;32.75;25.55;;;20.50;99.90;;;;;;4910404;29;20139;-64
2023/08/12 09:07:14;;;;;;;31.30;24.58;;;20.50;99.90;;;;;;4910374;29;20123;-67
2023/08/12 09:09:45;;;;;;;31.63;25.95;;;20.60;99.90;;;;;;4910898;29;20127;-61
2023/08/12 09:12:13;;;;;;;35.10;26.70;;;20.60;99.90;;;;;;4910929;29;20059;-67
2023/08/12 09:14:39;;;;;;;33.83;27.48;;;20.60;99.90;;;;;;4911427;29;20150;-61
2023/08/12 09:17:04;;;;;;;35.92;27.63;;;20.50;99.90;;;;;;4910682;29;20628;-68
2023/08/12 09:19:30;;;;;;;32.20;26.35;;;20.50;99.90;;;;;;4910286;29;20628;-62
2023/08/12 09:21:56;;;;;;;37.40;27.27;;;20.60;99.90;;;;;;4910419;29;20032;-68
2023/08/12 09:24:25;;;;;;;32.80;27.02;;;20.50;99.90;;;;;;4911211;29;20052;-66
2023/08/12 09:26:57;;;;;;;32.35;26.88;;;20.50;99.90;;;;;;4910697;29;20059;-64
2023/08/12 09:29:34;;;;;;;32.88;26.75;;;20.50;99.90;;;;;;4911350;29;20467;-64
2023/08/12 09:32:11;;;;;;;32.72;26.30;;;20.60;99.90;;;;;;4910435;29;20138;-63
2023/08/12 09:34:38;;;;;;;34.70;26.30;;;20.50;99.90;;;;;;4911440;29;20039;-57
2023/08/12 09:37:04;;;;;;;33.50;24.85;;;20.40;99.90;;;;;;4911561;29;20088;-68
2023/08/12 09:39:30;;;;;;;34.60;25.70;;;20.40;99.90;;;;;;4912414;29;20043;-67
2023/08/12 09:41:57;;;;;;;32.85;24.70;;;20.30;99.90;;;;;;4911361;29;20051;-68
2023/08/12 09:44:23;;;;;;;31.25;24.23;;;20.30;99.90;;;;;;4911927;29;20152;-61
2023/08/12 09:46:55;;;;;;;30.05;24.77;;;20.30;99.90;;;;;;4912035;29;20575;-63
2023/08/12 09:49:21;;;;;;;25.90;22.65;;;20.30;99.90;;;;;;4911278;29;20076;-59
2023/08/12 09:51:47;;;;;;;26.52;22.73;;;20.30;99.90;;;;;;4912484;29;20103;-64
2023/08/12 09:54:12;;;;;;;28.80;24.67;;;20.30;99.90;;;;;;4910747;29;20453;-62
2023/08/12 09:56:40;;;;;;;30.67;23.52;;;20.20;99.90;;;;;;4908815;29;20040;-70
2023/08/12 09:59:09;;;;;;;28.80;23.42;;;20.20;99.90;;;;;;4910276;29;20059;-69
2023/08/12 10:01:35;;;;;;;26.98;23.70;;;20.30;99.90;;;;;;4909472;29;20095;-66
2023/08/12 10:04:05;;;;;;;31.33;24.30;;;20.10;99.90;;;;;;4910989;29;20099;-69
2023/08/12 10:06:31;;;;;;;28.92;23.70;;;20.20;99.90;;;;;;4911440;29;20080;-69
2023/08/12 10:08:57;;;;;;;28.77;24.70;;;20.10;99.90;;;;;;4910673;29;20147;-63
2023/08/12 10:11:24;;;;;;;31.63;25.17;;;20.10;99.90;;;;;;4911838;29;20044;-68
2023/08/12 10:13:50;;;;;;;30.92;25.67;;;20.10;99.90;;;;;;4910251;29;20531;-69
2023/08/12 10:16:16;;;;;;;29.45;23.90;;;20.00;99.90;;;;;;4910296;29;20120;-68
2023/08/12 10:18:42;;;;;;;25.70;21.75;;;20.10;99.90;;;;;;4910804;29;20460;-60
2023/08/12 10:21:13;;;;;;;23.35;18.83;;;20.20;99.90;;;;;;4910023;29;20088;-63
2023/08/12 10:23:41;;;;;;;20.13;17.80;;;20.20;99.90;;;;;;4910965;29;20093;-69
2023/08/12 10:26:07;;;;;;;19.73;16.95;;;20.10;99.90;;;;;;4909902;29;20040;-66
2023/08/12 10:28:36;;;;;;;17.60;13.65;;;20.00;99.90;;;;;;4910433;29;20542;-61
2023/08/12 10:31:06;;;;;;;12.52;10.52;;;19.90;99.90;;;;;;4910992;29;20048;-69
2023/08/12 10:33:38;;;;;;;13.05;9.88;;;19.80;99.90;;;;;;4910779;29;20509;-69
2023/08/12 10:36:05;;;;;;;11.70;10.45;;;19.90;99.90;;;;;;4910490;29;20067;-64
2023/08/12 10:38:32;;;;;;;11.90;10.15;;;19.70;99.90;;;;;;4910154;29;20447;-66
2023/08/12 10:41:20;;;;;;;12.68;9.35;;;19.70;99.90;;;;;;4910890;29;20084;-66
2023/08/12 10:43:54;;;;;;;9.27;8.15;;;19.70;99.90;;;;;;4909923;29;20053;-63
2023/08/12 10:46:30;;;;;;;9.48;7.93;;;19.80;99.90;;;;;;4910744;29;20079;-66
2023/08/12 10:49:17;;;;;;;9.65;8.13;;;19.60;99.90;;;;;;4909015;29;20120;-65
2023/08/12 10:51:49;;;;;;;10.10;6.88;;;19.60;99.90;;;;;;4909768;29;20059;-66
2023/08/12 10:54:22;;;;;;;9.60;7.05;;;19.60;99.90;;;;;;4909637;29;20172;-68
2023/08/12 10:57:08;;;;;;;8.95;7.43;;;19.70;99.90;;;;;;4904743;29;20195;-70
2023/08/12 10:59:45;;;;;;;8.38;6.22;;;19.80;99.90;;;;;;4891084;29;20049;-62
2023/08/12 11:02:33;;;;;;;9.07;7.03;;;19.70;99.90;;;;;;4891697;29;20066;-66
2023/08/12 11:05:07;;;;;;;8.38;7.22;;;19.60;99.90;;;;;;4891450;29;20064;-62
2023/08/12 11:07:40;;;;;;;8.98;6.65;;;19.60;99.90;;;;;;4889951;29;20084;-68
2023/08/12 11:10:15;;;;;;;8.20;6.93;;;19.60;99.90;;;;;;4891177;29;20478;-66
2023/08/12 11:12:47;;;;;;;8.18;6.40;;;19.70;99.90;;;;;;4891885;29;20049;-68
2023/08/12 11:15:12;;;;;;;9.10;6.32;;;19.70;99.90;;;;;;4891796;29;20055;-64
2023/08/12 11:17:42;;;;;;;8.80;7.38;;;19.80;99.90;;;;;;4891128;29;20052;-70
2023/08/12 11:20:10;;;;;;;9.68;7.47;;;19.60;99.90;;;;;;4891615;29;20480;-65
2023/08/12 11:22:37;;;;;;;8.27;7.10;;;19.80;99.90;;;;;;4890948;29;20408;-65
2023/08/12 11:25:13;;;;;;;9.48;7.35;;;19.90;99.90;;;;;;4890933;29;20052;-70
2023/08/12 11:27:47;;;;;;;7.95;6.05;;;19.90;99.90;;;;;;4890159;29;20099;-58
2023/08/12 11:30:16;;;;;;;8.98;6.85;;;19.90;99.90;;;;;;4890737;29;20500;-65
2023/08/12 11:32:43;;;;;;;5.95;5.25;;;19.90;99.90;;;;;;4891346;29;20425;-69
2023/08/12 11:35:10;;;;;;;7.25;6.53;;;20.00;99.90;;;;;;4891284;29;20057;-62
2023/08/12 11:37:40;;;;;;;7.43;6.30;;;20.10;99.90;;;;;;4889823;29;20049;-68
2023/08/12 11:40:09;;;;;;;7.13;5.80;;;20.20;99.90;;;;;;4896954;29;20103;-67
2023/08/12 11:42:38;;;;;;;6.25;5.65;;;20.30;99.90;;;;;;4909369;29;20048;-54
2023/08/12 11:45:06;;;;;;;7.53;6.30;;;20.20;99.90;;;;;;4909400;29;20373;-60
2023/08/12 11:47:33;;;;;;;8.00;6.40;;;20.20;99.90;;;;;;4923537;29;20048;-60
2023/08/12 11:49:58;;;;;;;6.63;6.03;;;20.30;99.90;;;;;;4909660;29;20048;-60
2023/08/12 11:52:25;;;;;;;6.85;5.95;;;20.30;99.90;;;;;;4908923;29;20048;-58
2023/08/12 11:54:51;;;;;;;7.00;6.30;;;20.30;99.90;;;;;;4909920;29;20062;-60
2023/08/12 11:57:17;;;;;;;7.88;6.53;;;20.30;99.90;;;;;;4901475;29;20735;-58
2023/08/12 11:59:43;;;;;;;7.63;6.10;;;20.30;99.90;;;;;;4892057;29;20045;-59
2023/08/12 12:02:11;;;;;;;4.93;4.05;;;20.30;99.90;;;;;;4890399;29;20084;-60
2023/08/12 12:04:37;;;;;;;4.72;3.20;;;20.30;99.90;;;;;;4906430;29;20044;-60
2023/08/12 12:07:06;;;;;;;4.68;3.65;;;20.50;99.90;;;;;;4908381;29;20123;-60
2023/08/12 12:09:32;;;;;;;4.95;4.10;;;20.40;99.90;;;;;;4908282;29;20063;-57
2023/08/12 12:12:00;;;;;;;4.93;3.83;;;20.30;99.90;;;;;;4909775;29;20123;-56
2023/08/12 12:14:25;;;;;;;6.32;4.13;;;20.40;99.90;;;;;;4908422;29;20060;-59
2023/08/12 12:16:51;;;;;;;4.43;2.50;;;20.30;99.90;;;;;;4908515;29;20406;-56
2023/08/12 12:19:18;;;;;;;3.88;2.53;;;20.30;99.90;;;;;;4912124;29;20092;-60
2023/08/12 12:21:48;;;;;;;4.18;2.80;;;20.10;99.90;;;;;;4910548;29;20043;-58
2023/08/12 12:24:14;;;;;;;3.97;3.17;;;20.00;99.90;;;;;;4911851;29;20048;-57
2023/08/12 12:26:41;;;;;;;4.63;3.58;;;19.90;99.90;;;;;;4911291;29;20513;-60
2023/08/12 12:29:07;;;;;;;4.30;3.30;;;19.90;99.90;;;;;;4912561;29;20123;-58
2023/08/12 12:31:34;;;;;;;5.88;3.22;;;20.00;99.90;;;;;;4912179;29;20131;-60